Time;durP1;ratioP1;P1;durP2;ratioP2;P2;SDS_P1;SDS_P2;PMS_P1;PMS_P2;Temp;Humidity;BMP_temperature;BMP_pressure;BME280_temperature;BME280_humidity;BME280_pressure;Samples;Min_cycle;Max_cycle;Signal;HPM_P1;HPM_P2
2023/08/11 00:01:48;;;;;;;2.42;1.20;;;21.70;64.90;;;;;;2316833;54;20986;-66
2023/08/11 00:04:18;;;;;;;3.00;1.42;;;21.70;64.90;;;;;;2588129;53;21462;-69
2023/08/11 00:06:44;;;;;;;2.55;1.25;;;21.70;65.00;;;;;;2587732;53;20925;-66
2023/08/11 00:09:11;;;;;;;3.80;1.10;;;21.70;65.00;;;;;;2587895;53;20959;-65
2023/08/11 00:11:41;;;;;;;3.15;1.30;;;21.60;64.90;;;;;;2587611;53;20945;-67
2023/08/11 00:14:07;;;;;;;4.87;1.40;;;21.60;65.00;;;;;;2310199;54;21122;-65
2023/08/11 00:16:34;;;;;;;2.58;1.30;;;21.60;65.10;;;;;;2549563;54;20940;-66
2023/08/11 00:19:01;;;;;;;3.00;1.50;;;21.60;65.10;;;;;;2547945;54;20951;-65
2023/08/11 00:21:30;;;;;;;3.80;1.30;;;21.50;65.00;;;;;;2549274;54;21008;-65
2023/08/11 00:23:56;;;;;;;2.50;1.30;;;21.50;65.00;;;;;;2549208;54;20927;-66
2023/08/11 00:26:23;;;;;;;2.50;1.27;;;21.50;65.10;;;;;;2549179;54;21040;-66
2023/08/11 00:28:51;;;;;;;2.47;1.10;;;21.50;65.10;;;;;;2310242;54;20951;-66
2023/08/11 00:31:18;;;;;;;3.87;1.30;;;21.40;65.00;;;;;;2549365;54;20931;-67
2023/08/11 00:33:46;;;;;;;3.15;1.40;;;21.40;65.00;;;;;;2311414;54;21007;-67
2023/08/11 00:36:13;;;;;;;3.85;1.48;;;21.40;65.20;;;;;;2549377;54;21046;-67
2023/08/11 00:38:40;;;;;;;2.70;1.30;;;21.30;65.20;;;;;;2548174;54;20960;-67
2023/08/11 00:41:07;;;;;;;2.50;1.20;;;21.30;65.20;;;;;;2309720;54;20967;-68
2023/08/11 00:43:33;;;;;;;2.92;1.48;;;21.30;65.30;;;;;;2548233;54;21075;-65
2023/08/11 00:46:11;;;;;;;3.30;1.48;;;21.30;65.30;;;;;;2548583;54;21817;-66
2023/08/11 00:48:50;;;;;;;2.80;1.50;;;21.30;64.90;;;;;;2548170;54;20968;-66
2023/08/11 00:51:18;;;;;;;3.05;1.42;;;21.20;64.70;;;;;;2320704;55;21402;-66
2023/08/11 00:53:45;;;;;;;3.40;1.65;;;21.20;65.20;;;;;;2587556;53;21056;-65
2023/08/11 00:56:12;;;;;;;3.00;1.58;;;21.10;65.20;;;;;;2585019;53;20960;-66
2023/08/11 00:58:38;;;;;;;2.60;1.40;;;21.10;65.30;;;;;;2341465;54;21446;-65
2023/08/11 01:01:07;;;;;;;2.87;1.48;;;21.10;65.40;;;;;;2587006;53;21024;-65
2023/08/11 01:03:34;;;;;;;2.70;1.20;;;21.00;65.30;;;;;;2587800;53;21017;-66
2023/08/11 01:12:52;;;;;;;2.85;1.42;;;21.00;65.30;;;;;;2587196;53;21004;-66
2023/08/11 01:15:21;;;;;;;2.00;0.98;;;21.00;65.20;;;;;;2342164;54;21751;-70
2023/08/11 01:17:48;;;;;;;2.20;1.00;;;21.00;65.40;;;;;;2341258;54;20997;-64
2023/08/11 01:20:16;;;;;;;2.95;1.00;;;20.90;65.40;;;;;;2341635;54;21035;-65
2023/08/11 01:22:47;;;;;;;2.92;1.25;;;20.90;65.40;;;;;;2588111;53;20928;-67
2023/08/11 01:25:13;;;;;;;2.67;1.35;;;20.90;65.40;;;;;;2341336;54;21770;-65
2023/08/11 01:27:54;;;;;;;2.45;1.37;;;20.80;65.40;;;;;;2341839;54;20988;-65
2023/08/11 01:30:20;;;;;;;2.33;1.35;;;20.80;65.40;;;;;;2342197;54;20925;-65
2023/08/11 01:32:47;;;;;;;2.28;1.15;;;20.80;65.60;;;;;;2341837;54;20989;-66
2023/08/11 01:35:14;;;;;;;2.65;1.40;;;20.70;65.50;;;;;;2587436;53;21399;-66
2023/08/11 01:37:43;;;;;;;2.42;1.12;;;20.70;65.50;;;;;;2588231;53;21006;-64
2023/08/11 01:40:14;;;;;;;2.70;1.40;;;20.60;65.60;;;;;;2335280;54;21576;-67
2023/08/11 01:42:41;;;;;;;3.65;1.70;;;20.60;65.70;;;;;;2545784;53;20940;-65
2023/08/11 01:45:10;;;;;;;2.87;1.52;;;20.60;65.90;;;;;;2342198;54;20945;-65
2023/08/11 01:47:38;;;;;;;3.50;1.60;;;20.60;65.90;;;;;;2341615;54;20949;-65
2023/08/11 01:50:06;;;;;;;3.17;1.58;;;20.60;66.00;;;;;;2341167;54;21774;-66
2023/08/11 01:52:36;;;;;;;3.40;1.87;;;20.60;66.00;;;;;;2342433;54;20950;-64
2023/08/11 01:55:03;;;;;;;2.90;1.50;;;20.60;65.90;;;;;;2341590;54;20937;-69
2023/08/11 01:57:30;;;;;;;2.87;1.60;;;20.50;65.90;;;;;;2587723;53;20964;-65
2023/08/11 01:59:56;;;;;;;3.00;1.50;;;20.60;66.00;;;;;;2341073;54;20941;-69
2023/08/11 02:02:25;;;;;;;2.53;1.23;;;20.50;65.80;;;;;;2587699;53;21056;-65
2023/08/11 02:04:52;;;;;;;2.72;1.50;;;20.50;65.80;;;;;;2588117;53;20945;-65
2023/08/11 02:07:19;;;;;;;3.35;1.77;;;20.50;65.80;;;;;;2342166;54;21402;-70
2023/08/11 02:09:46;;;;;;;3.33;1.80;;;20.40;65.70;;;;;;2341918;54;20977;-69
2023/08/11 02:12:12;;;;;;;3.30;1.75;;;20.40;65.80;;;;;;2556845;53;20970;-67
2023/08/11 02:14:39;;;;;;;4.47;1.80;;;20.40;65.80;;;;;;2565186;53;20939;-66
2023/08/11 02:17:05;;;;;;;2.97;1.70;;;20.40;66.00;;;;;;2331698;54;20999;-65
2023/08/11 02:19:32;;;;;;;3.25;1.83;;;20.30;66.00;;;;;;2588023;53;21012;-65
2023/08/11 02:21:59;;;;;;;3.28;1.65;;;20.30;66.00;;;;;;2587633;53;20937;-66
2023/08/11 02:24:25;;;;;;;2.80;1.60;;;20.30;66.10;;;;;;2342074;54;20921;-65
2023/08/11 02:26:51;;;;;;;2.95;1.58;;;20.30;66.00;;;;;;2341463;54;20948;-65
2023/08/11 02:29:18;;;;;;;3.47;1.50;;;20.30;66.10;;;;;;2587296;53;21253;-68
2023/08/11 02:31:44;;;;;;;3.22;1.73;;;20.30;66.80;;;;;;2587880;53;20984;-70
2023/08/11 02:34:11;;;;;;;3.15;1.80;;;20.30;66.00;;;;;;2341895;54;21021;-65
2023/08/11 02:36:37;;;;;;;3.55;1.95;;;20.30;65.90;;;;;;2587464;53;22048;-65
2023/08/11 02:39:05;;;;;;;4.10;2.00;;;20.20;65.80;;;;;;2340818;54;20966;-71
2023/08/11 02:41:31;;;;;;;5.35;1.95;;;20.20;65.90;;;;;;2341726;54;20968;-66
2023/08/11 02:43:59;;;;;;;3.42;1.80;;;20.20;66.00;;;;;;2587978;53;21008;-69
2023/08/11 02:46:25;;;;;;;3.67;1.90;;;20.20;66.10;;;;;;2342671;54;20996;-65
2023/08/11 02:48:52;;;;;;;3.20;1.55;;;20.10;66.00;;;;;;2588391;53;20992;-69
2023/08/11 02:51:18;;;;;;;3.40;1.80;;;20.20;66.10;;;;;;2342387;54;20972;-68
2023/08/11 02:53:45;;;;;;;3.30;1.65;;;20.10;66.00;;;;;;2587435;53;20996;-65
2023/08/11 02:56:15;;;;;;;2.97;1.75;;;20.10;66.00;;;;;;2588209;53;21153;-68
2023/08/11 02:58:42;;;;;;;3.85;1.80;;;20.00;65.90;;;;;;2342103;54;20968;-66
2023/08/11 03:01:08;;;;;;;3.20;1.85;;;20.10;66.20;;;;;;2588063;53;20941;-68
2023/08/11 03:03:34;;;;;;;3.62;2.10;;;20.00;66.30;;;;;;2587821;53;21099;-68
2023/08/11 03:06:01;;;;;;;3.00;1.80;;;20.00;66.30;;;;;;2341765;54;21413;-65
2023/08/11 03:08:30;;;;;;;3.10;1.70;;;20.00;66.40;;;;;;2341591;54;21019;-68
2023/08/11 03:10:57;;;;;;;3.67;1.87;;;20.00;66.40;;;;;;2588069;53;20943;-65
2023/08/11 03:13:28;;;;;;;3.17;1.50;;;20.00;66.40;;;;;;2342078;54;21083;-69
2023/08/11 03:15:56;;;;;;;3.15;1.60;;;20.00;66.40;;;;;;2310400;54;20947;-66
2023/08/11 03:18:22;;;;;;;4.18;1.87;;;20.00;66.50;;;;;;2310374;55;20987;-67
2023/08/11 03:20:49;;;;;;;3.35;1.70;;;19.90;66.40;;;;;;2559020;53;20952;-67
2023/08/11 03:23:15;;;;;;;3.00;1.70;;;20.00;66.50;;;;;;2322184;54;20960;-65
2023/08/11 03:25:41;;;;;;;3.22;1.62;;;19.90;66.40;;;;;;2341258;54;20949;-65
2023/08/11 03:28:08;;;;;;;2.95;1.50;;;19.90;66.30;;;;;;2587995;53;21020;-67
2023/08/11 03:30:35;;;;;;;3.10;1.65;;;19.90;66.30;;;;;;2555437;53;20954;-66
2023/08/11 03:33:02;;;;;;;2.95;1.70;;;19.90;66.20;;;;;;2587687;53;20937;-66
2023/08/11 03:35:28;;;;;;;3.05;1.80;;;19.90;66.40;;;;;;2588000;53;20961;-66
2023/08/11 03:37:55;;;;;;;2.78;1.35;;;19.90;66.40;;;;;;2587745;53;20936;-68
2023/08/11 03:40:21;;;;;;;3.20;1.60;;;19.80;66.20;;;;;;2341783;54;21730;-68
2023/08/11 03:42:47;;;;;;;6.62;1.73;;;19.80;66.30;;;;;;2587305;53;20993;-66
2023/08/11 03:45:14;;;;;;;2.90;1.45;;;19.80;66.30;;;;;;2341062;54;21004;-65
2023/08/11 03:47:41;;;;;;;2.87;1.60;;;19.80;66.30;;;;;;2559047;53;20954;-65
2023/08/11 03:50:08;;;;;;;3.42;1.60;;;19.80;66.30;;;;;;2337737;54;20960;-66
2023/08/11 03:52:35;;;;;;;2.90;1.62;;;19.80;66.20;;;;;;2588140;53;20948;-66
2023/08/11 03:55:04;;;;;;;2.83;1.58;;;19.70;66.10;;;;;;2579317;53;20963;-66
2023/08/11 03:57:31;;;;;;;3.03;1.50;;;19.70;66.20;;;;;;2563424;53;21370;-65
2023/08/11 04:00:01;;;;;;;3.15;1.70;;;19.70;66.30;;;;;;2311396;55;20947;-66
2023/08/11 04:02:28;;;;;;;3.10;1.75;;;19.70;66.40;;;;;;2571480;53;20972;-66
2023/08/11 04:04:54;;;;;;;3.08;1.67;;;19.70;66.40;;;;;;2588158;53;20981;-68
2023/08/11 04:07:21;;;;;;;3.12;1.50;;;19.60;66.40;;;;;;2587938;53;21024;-69
2023/08/11 04:09:48;;;;;;;2.97;1.70;;;19.60;66.40;;;;;;2555120;53;21042;-65
2023/08/11 04:12:15;;;;;;;2.78;1.45;;;19.60;66.40;;;;;;2341979;54;20988;-66
2023/08/11 04:14:41;;;;;;;2.65;1.30;;;19.60;66.40;;;;;;2341697;54;21524;-66
2023/08/11 04:17:08;;;;;;;2.72;1.50;;;19.60;66.40;;;;;;2587802;53;20971;-66
2023/08/11 04:19:34;;;;;;;2.87;1.55;;;19.60;66.40;;;;;;2587965;53;21430;-66
2023/08/11 04:22:01;;;;;;;3.65;1.55;;;19.60;66.40;;;;;;2588349;53;20933;-69
2023/08/11 04:24:27;;;;;;;3.55;1.58;;;19.60;66.40;;;;;;2341486;54;20977;-66
2023/08/11 04:26:55;;;;;;;3.20;1.85;;;19.60;66.40;;;;;;2587715;53;20980;-65
2023/08/11 04:29:22;;;;;;;2.80;1.50;;;19.60;66.40;;;;;;2587996;53;20937;-66
2023/08/11 04:31:48;;;;;;;2.87;1.77;;;19.50;66.30;;;;;;2341920;54;20992;-65
2023/08/11 04:34:16;;;;;;;3.28;1.50;;;19.50;66.20;;;;;;2341743;54;20960;-65
2023/08/11 04:36:42;;;;;;;3.33;1.50;;;19.50;66.30;;;;;;2341593;54;20993;-68
2023/08/11 04:39:12;;;;;;;3.00;1.23;;;19.50;66.30;;;;;;2342095;54;20949;-69
2023/08/11 04:41:38;;;;;;;2.60;1.50;;;19.40;66.30;;;;;;2341484;54;20948;-64
2023/08/11 04:44:05;;;;;;;4.05;1.90;;;19.40;66.30;;;;;;2588659;53;20905;-65
2023/08/11 04:46:32;;;;;;;3.53;1.50;;;19.40;66.30;;;;;;2341346;54;21015;-67
2023/08/11 04:48:58;;;;;;;3.25;1.73;;;19.40;66.40;;;;;;2588422;53;20929;-65
2023/08/11 04:51:25;;;;;;;3.00;1.60;;;19.40;66.40;;;;;;2587244;53;20949;-67
2023/08/11 04:53:59;;;;;;;2.60;1.40;;;19.30;66.40;;;;;;2317253;54;20987;-69
2023/08/11 04:56:27;;;;;;;2.50;1.35;;;19.40;66.40;;;;;;2567916;53;21037;-66
2023/08/11 04:58:56;;;;;;;4.18;1.17;;;19.30;66.40;;;;;;2576464;53;20957;-66
2023/08/11 05:01:24;;;;;;;5.15;1.58;;;19.30;66.40;;;;;;2341707;54;20932;-65
2023/08/11 05:03:50;;;;;;;2.90;1.50;;;19.30;66.50;;;;;;2587242;53;21619;-67
2023/08/11 05:06:17;;;;;;;2.35;1.40;;;19.30;66.60;;;;;;2588267;53;20976;-65
2023/08/11 05:08:45;;;;;;;3.12;1.70;;;19.30;66.60;;;;;;2341337;54;21046;-65
2023/08/11 05:11:11;;;;;;;3.30;1.23;;;19.30;66.60;;;;;;2340988;54;21048;-65
2023/08/11 05:13:40;;;;;;;3.65;2.00;;;19.30;66.80;;;;;;2338927;54;20993;-66
2023/08/11 05:16:06;;;;;;;2.70;1.40;;;19.20;66.70;;;;;;2322993;54;20985;-68
2023/08/11 05:18:33;;;;;;;3.05;1.70;;;19.30;66.90;;;;;;2588226;53;20952;-68
2023/08/11 05:21:05;;;;;;;2.55;1.35;;;19.20;66.90;;;;;;2588364;53;21915;-68
2023/08/11 05:23:34;;;;;;;4.43;1.77;;;19.30;67.10;;;;;;2587862;53;22211;-65
2023/08/11 05:26:01;;;;;;;2.90;1.50;;;19.30;67.00;;;;;;2342463;54;20960;-71
2023/08/11 05:28:27;;;;;;;2.40;1.27;;;19.30;67.10;;;;;;2341861;54;20992;-66
2023/08/11 05:30:56;;;;;;;2.67;1.40;;;19.30;67.20;;;;;;2320463;54;21485;-66
2023/08/11 05:33:24;;;;;;;3.20;1.58;;;19.30;67.30;;;;;;2341116;54;21509;-65
2023/08/11 05:35:51;;;;;;;3.17;1.77;;;19.30;67.30;;;;;;2340905;54;20965;-66
2023/08/11 05:38:25;;;;;;;3.10;1.48;;;19.30;67.30;;;;;;2341332;54;20937;-69
2023/08/11 05:40:52;;;;;;;2.72;1.35;;;19.30;67.40;;;;;;2587865;53;20960;-66
2023/08/11 05:43:18;;;;;;;3.40;1.67;;;19.40;67.60;;;;;;2318837;54;21001;-65
2023/08/11 05:45:50;;;;;;;2.90;1.55;;;19.40;67.70;;;;;;2341699;54;20926;-66
2023/08/11 05:48:20;;;;;;;2.92;1.50;;;19.40;67.60;;;;;;2341169;54;20979;-68
2023/08/11 05:50:46;;;;;;;2.50;1.23;;;19.40;67.70;;;;;;2586607;53;21020;-67
2023/08/11 05:53:13;;;;;;;3.40;1.65;;;19.40;67.80;;;;;;2316203;54;21723;-65
2023/08/11 05:55:45;;;;;;;3.40;2.05;;;19.50;67.90;;;;;;2554774;53;20982;-64
2023/08/11 05:58:12;;;;;;;2.80;1.40;;;19.50;68.00;;;;;;2555747;53;20990;-65
2023/08/11 06:00:38;;;;;;;3.00;1.50;;;19.60;68.20;;;;;;2588026;53;20976;-64
2023/08/11 06:03:05;;;;;;;2.92;1.52;;;19.60;68.20;;;;;;2342011;54;20977;-65
2023/08/11 06:05:31;;;;;;;2.90;1.80;;;19.60;68.20;;;;;;2588133;53;21284;-67
2023/08/11 06:07:59;;;;;;;5.10;2.08;;;19.60;68.20;;;;;;2587278;53;20971;-65
2023/08/11 06:10:31;;;;;;;3.33;1.52;;;19.70;68.40;;;;;;2341618;54;20961;-65
2023/08/11 06:13:01;;;;;;;3.55;1.50;;;19.70;68.40;;;;;;2588620;53;20933;-65
2023/08/11 06:15:30;;;;;;;3.17;1.70;;;19.80;68.60;;;;;;2341898;54;20952;-65
2023/08/11 06:17:56;;;;;;;3.20;1.80;;;19.90;68.70;;;;;;2342272;54;20980;-65
2023/08/11 06:20:22;;;;;;;3.20;1.75;;;19.90;68.70;;;;;;2588273;53;21028;-70
2023/08/11 06:22:56;;;;;;;3.35;1.75;;;20.00;68.80;;;;;;2342379;54;21418;-67
2023/08/11 06:25:23;;;;;;;4.75;2.00;;;20.00;68.90;;;;;;2317748;55;20965;-68
2023/08/11 06:27:50;;;;;;;4.07;1.70;;;20.10;69.10;;;;;;2341332;54;20913;-66
2023/08/11 06:30:16;;;;;;;3.78;1.83;;;20.10;69.00;;;;;;2587447;53;21734;-66
2023/08/11 06:32:43;;;;;;;3.20;2.00;;;20.20;69.20;;;;;;2341474;54;20921;-65
2023/08/11 06:35:10;;;;;;;3.50;1.90;;;20.30;69.30;;;;;;2588214;53;20913;-65
2023/08/11 06:37:37;;;;;;;3.65;2.12;;;20.30;69.30;;;;;;2572190;53;20939;-65
2023/08/11 06:40:07;;;;;;;3.00;1.73;;;20.40;69.40;;;;;;2327797;54;21032;-66
2023/08/11 06:42:33;;;;;;;3.72;1.92;;;20.50;69.50;;;;;;2341805;54;20929;-65
2023/08/11 06:45:00;;;;;;;3.58;1.83;;;20.50;69.50;;;;;;2341829;54;21044;-68
2023/08/11 06:47:29;;;;;;;4.03;1.98;;;20.60;70.30;;;;;;2588382;53;20917;-65
2023/08/11 06:49:55;;;;;;;3.60;2.33;;;20.70;69.60;;;;;;2341830;54;21083;-65
2023/08/11 06:52:21;;;;;;;4.22;2.75;;;20.80;69.60;;;;;;2341220;54;21004;-67
2023/08/11 06:54:48;;;;;;;3.22;2.00;;;20.80;69.60;;;;;;2588516;53;20953;-69
2023/08/11 06:57:17;;;;;;;3.37;1.87;;;20.90;69.60;;;;;;2341911;54;20944;-66
2023/08/11 06:59:44;;;;;;;3.58;2.30;;;21.00;69.70;;;;;;2322349;54;20964;-70
2023/08/11 07:02:10;;;;;;;3.92;1.90;;;21.10;69.80;;;;;;2322986;54;21109;-65
2023/08/11 07:04:37;;;;;;;3.35;1.77;;;21.10;69.80;;;;;;2341864;54;21873;-65
2023/08/11 07:07:03;;;;;;;3.45;2.30;;;21.20;69.90;;;;;;2588359;53;20913;-65
2023/08/11 07:09:30;;;;;;;3.70;2.20;;;21.30;70.00;;;;;;2566349;53;21006;-69
2023/08/11 07:11:59;;;;;;;3.75;2.17;;;21.40;70.10;;;;;;2576592;53;21012;-65
2023/08/11 07:14:25;;;;;;;4.03;2.40;;;21.50;70.10;;;;;;2341801;54;20909;-67
2023/08/11 07:16:51;;;;;;;4.60;2.33;;;21.50;70.00;;;;;;2342048;54;20980;-70
2023/08/11 07:19:18;;;;;;;4.03;2.15;;;21.60;70.10;;;;;;2587826;53;20988;-67
2023/08/11 07:21:45;;;;;;;3.40;2.20;;;21.70;70.20;;;;;;2331920;54;21589;-66
2023/08/11 07:24:11;;;;;;;3.67;2.35;;;21.80;70.30;;;;;;2328178;54;20924;-68
2023/08/11 07:26:38;;;;;;;3.85;2.22;;;21.90;70.30;;;;;;2587092;53;20924;-64
2023/08/11 07:29:04;;;;;;;3.97;2.28;;;22.00;70.30;;;;;;2587368;53;20973;-67
2023/08/11 07:31:31;;;;;;;3.80;2.25;;;22.10;70.30;;;;;;2341002;54;20972;-66
2023/08/11 07:33:57;;;;;;;3.95;2.50;;;22.20;70.40;;;;;;2586589;53;20981;-66
2023/08/11 07:36:24;;;;;;;11.75;3.55;;;22.30;70.40;;;;;;2587113;53;21783;-64
2023/08/11 07:38:51;;;;;;;4.87;2.33;;;22.40;70.70;;;;;;2341917;54;21008;-65
2023/08/11 07:41:18;;;;;;;4.03;2.28;;;22.40;70.60;;;;;;2588351;53;20925;-66
2023/08/11 07:43:45;;;;;;;4.57;2.20;;;22.50;70.60;;;;;;2341666;54;21418;-66
2023/08/11 07:46:11;;;;;;;3.42;2.20;;;22.60;70.50;;;;;;2588102;53;21000;-66
2023/08/11 07:48:37;;;;;;;3.20;1.85;;;22.70;70.50;;;;;;2588256;53;21016;-65
2023/08/11 07:51:04;;;;;;;4.53;2.20;;;22.70;70.50;;;;;;2587746;53;21009;-68
2023/08/11 07:53:31;;;;;;;4.12;2.22;;;22.90;70.50;;;;;;2341560;54;21012;-64
2023/08/11 07:55:58;;;;;;;3.80;2.10;;;23.00;70.50;;;;;;2577017;53;20966;-67
2023/08/11 07:58:24;;;;;;;3.30;2.00;;;23.10;70.50;;;;;;2323838;54;21012;-67
2023/08/11 08:00:52;;;;;;;3.30;2.20;;;23.20;70.30;;;;;;2341794;54;20937;-66
2023/08/11 08:03:21;;;;;;;4.32;2.55;;;23.40;70.50;;;;;;2588661;53;21021;-70
2023/08/11 08:05:48;;;;;;;4.45;2.80;;;23.50;70.60;;;;;;2342270;54;20961;-68
2023/08/11 08:08:15;;;;;;;3.70;2.37;;;23.60;70.60;;;;;;2588750;53;20905;-66
2023/08/11 08:10:42;;;;;;;4.40;2.50;;;23.60;70.50;;;;;;2587764;53;20936;-66
2023/08/11 08:13:09;;;;;;;4.25;2.87;;;23.80;70.50;;;;;;2565514;53;20970;-66
2023/08/11 08:15:35;;;;;;;5.53;2.90;;;23.80;70.30;;;;;;2331901;54;21028;-66
2023/08/11 08:18:04;;;;;;;4.90;2.92;;;23.90;70.30;;;;;;2560863;53;20961;-65
2023/08/11 08:20:33;;;;;;;4.50;2.80;;;24.00;70.20;;;;;;2588175;53;20965;-65
2023/08/11 08:23:00;;;;;;;3.80;2.42;;;24.20;70.30;;;;;;2588079;53;20921;-65
2023/08/11 08:25:26;;;;;;;3.90;2.45;;;24.20;70.00;;;;;;2587270;53;21027;-68
2023/08/11 08:27:52;;;;;;;3.70;2.20;;;24.30;70.00;;;;;;2587510;53;20917;-66
2023/08/11 08:30:28;;;;;;;4.00;2.28;;;24.40;69.80;;;;;;2342045;54;20980;-66
2023/08/11 08:32:54;;;;;;;5.75;2.67;;;24.50;69.70;;;;;;2585520;53;21000;-69
2023/08/11 08:35:21;;;;;;;3.37;2.30;;;24.60;69.70;;;;;;2483491;53;21031;-66
2023/08/11 08:37:48;;;;;;;4.90;2.40;;;24.70;69.80;;;;;;2484383;55;21039;-72
2023/08/11 08:40:15;;;;;;;4.43;2.33;;;24.80;69.60;;;;;;2446982;55;20971;-67
2023/08/11 08:42:41;;;;;;;3.40;2.15;;;24.90;69.60;;;;;;2477918;55;21003;-71
2023/08/11 08:45:08;;;;;;;4.50;2.62;;;25.00;69.50;;;;;;2250729;56;21054;-67
2023/08/11 08:47:39;;;;;;;4.37;2.50;;;25.00;69.40;;;;;;2478640;54;21142;-67
2023/08/11 08:50:06;;;;;;;5.28;2.37;;;25.10;69.30;;;;;;2238893;56;21705;-68
2023/08/11 08:52:35;;;;;;;5.43;2.33;;;25.20;69.20;;;;;;2470809;55;20999;-65
2023/08/11 08:55:03;;;;;;;4.03;2.47;;;25.30;69.20;;;;;;2470284;55;21014;-69
2023/08/11 08:57:29;;;;;;;3.70;2.37;;;25.40;69.10;;;;;;2468707;56;21000;-72
2023/08/11 08:59:56;;;;;;;3.80;2.17;;;25.50;69.10;;;;;;2447713;53;1338290;-68
2023/08/11 09:02:27;;;;;;;4.72;2.25;;;25.60;68.90;;;;;;2310350;54;21438;-68
2023/08/11 09:04:56;;;;;;;4.03;2.23;;;25.70;68.90;;;;;;2549845;53;21035;-70
2023/08/11 09:07:24;;;;;;;4.60;2.58;;;25.70;68.50;;;;;;2307183;54;20990;-71
2023/08/11 09:09:53;;;;;;;4.75;2.85;;;25.80;68.70;;;;;;2579939;53;20969;-68
2023/08/11 09:12:19;;;;;;;4.68;2.70;;;25.90;68.60;;;;;;2587575;53;20952;-69
2023/08/11 09:14:46;;;;;;;4.85;2.47;;;26.00;68.60;;;;;;2583358;53;21095;-68
2023/08/11 09:17:12;;;;;;;4.15;2.65;;;26.00;68.40;;;;;;2588097;53;20965;-71
2023/08/11 09:19:42;;;;;;;4.12;2.55;;;26.10;68.30;;;;;;2335418;54;20970;-69
2023/08/11 09:22:10;;;;;;;3.92;2.42;;;26.20;68.00;;;;;;2567454;53;20961;-69
2023/08/11 09:24:38;;;;;;;4.25;2.83;;;26.30;68.40;;;;;;2587265;53;20932;-69
2023/08/11 09:27:06;;;;;;;3.70;2.30;;;26.40;68.30;;;;;;2341942;54;20941;-69
2023/08/11 09:29:34;;;;;;;3.90;2.35;;;26.40;68.20;;;;;;2586997;53;21004;-73
2023/08/11 09:32:02;;;;;;;4.50;2.50;;;26.50;67.90;;;;;;2563898;53;20992;-72
2023/08/11 09:34:29;;;;;;;3.62;2.10;;;26.60;67.90;;;;;;2313403;54;21730;-69
2023/08/11 09:36:55;;;;;;;3.40;1.92;;;26.70;67.80;;;;;;2342047;54;20978;-69
2023/08/11 09:39:22;;;;;;;3.70;2.60;;;26.70;67.80;;;;;;2342198;54;21755;-71
2023/08/11 09:41:49;;;;;;;4.22;2.50;;;26.80;67.70;;;;;;2341473;54;20972;-70
2023/08/11 09:44:18;;;;;;;3.85;2.22;;;26.90;67.60;;;;;;2335280;54;20982;-70
2023/08/11 09:46:46;;;;;;;3.60;2.40;;;26.90;67.50;;;;;;2568522;53;21752;-69
2023/08/11 09:49:12;;;;;;;5.50;2.55;;;27.00;67.50;;;;;;2342145;54;20956;-69
2023/08/11 09:51:39;;;;;;;3.20;2.00;;;27.10;67.50;;;;;;2341918;54;21449;-68
2023/08/11 09:54:10;;;;;;;3.87;2.15;;;27.20;67.40;;;;;;2589372;53;20981;-72
2023/08/11 09:56:39;;;;;;;3.35;1.95;;;27.30;67.10;;;;;;2343033;54;20940;-67
2023/08/11 09:59:11;;;;;;;4.62;1.80;;;27.30;66.80;;;;;;2588950;53;21466;-69
2023/08/11 10:01:37;;;;;;;3.27;1.87;;;27.40;66.50;;;;;;2589770;53;20984;-70
2023/08/11 10:04:13;;;;;;;3.30;1.80;;;27.50;66.40;;;;;;2589273;53;21091;-70
2023/08/11 10:06:47;;;;;;;2.85;1.75;;;27.50;66.00;;;;;;2588422;53;21476;-69
2023/08/11 10:09:13;;;;;;;3.90;1.90;;;27.60;65.70;;;;;;2588328;53;20981;-69
2023/08/11 10:11:42;;;;;;;3.22;1.70;;;27.70;65.80;;;;;;2343720;54;21013;-68
2023/08/11 10:14:08;;;;;;;3.35;1.85;;;27.70;65.70;;;;;;2342162;54;21666;-69
2023/08/11 10:16:34;;;;;;;3.33;2.08;;;27.80;65.50;;;;;;2342841;54;20940;-71
2023/08/11 10:19:01;;;;;;;3.67;2.03;;;27.90;65.40;;;;;;2341891;54;21011;-68
2023/08/11 10:21:27;;;;;;;3.58;2.20;;;27.90;65.20;;;;;;2588639;53;21514;-69
2023/08/11 10:23:56;;;;;;;3.50;1.90;;;28.00;65.00;;;;;;2342249;54;20949;-69
2023/08/11 10:26:23;;;;;;;3.60;1.92;;;28.10;64.90;;;;;;2342010;54;21001;-69
2023/08/11 10:28:50;;;;;;;3.45;2.12;;;28.10;64.50;;;;;;2342318;54;20929;-70
2023/08/11 10:31:17;;;;;;;3.53;2.22;;;28.10;64.30;;;;;;2588068;53;20996;-70
2023/08/11 10:33:58;;;;;;;3.05;1.85;;;28.20;64.50;;;;;;2588195;53;20960;-69
2023/08/11 10:36:26;;;;;;;3.50;2.10;;;28.30;63.90;;;;;;2342206;54;20924;-71
2023/08/11 10:39:01;;;;;;;3.35;2.10;;;28.30;64.20;;;;;;2582153;53;21855;-70
2023/08/11 10:41:27;;;;;;;3.47;2.00;;;28.40;63.30;;;;;;2321751;55;20981;-70
2023/08/11 10:43:54;;;;;;;3.12;1.77;;;28.40;64.00;;;;;;2341956;54;20949;-68
2023/08/11 10:46:31;;;;;;;3.00;1.62;;;28.50;63.90;;;;;;2341749;54;20965;-69
2023/08/11 10:49:35;;;;;;;3.35;1.52;;;28.50;63.60;;;;;;2573785;53;21492;-69
2023/08/11 10:52:02;;;;;;;3.03;1.90;;;28.60;62.00;;;;;;2336109;54;21011;-70
2023/08/11 10:54:29;;;;;;;3.42;1.92;;;28.70;63.50;;;;;;2588658;53;21563;-68
2023/08/11 10:57:00;;;;;;;4.37;2.28;;;28.70;63.40;;;;;;2342141;54;21013;-69
2023/08/11 10:59:31;;;;;;;2.90;1.60;;;28.80;63.30;;;;;;2342457;54;20929;-70
2023/08/11 11:02:00;;;;;;;4.73;1.87;;;28.80;63.30;;;;;;2588591;53;20996;-68
2023/08/11 11:04:31;;;;;;;2.42;1.50;;;28.90;62.90;;;;;;2588949;53;21001;-69
2023/08/11 11:07:00;;;;;;;3.62;1.70;;;29.00;63.20;;;;;;2589031;53;20928;-69
2023/08/11 11:09:27;;;;;;;3.58;1.58;;;29.00;62.70;;;;;;2588377;53;21058;-69
2023/08/11 11:11:54;;;;;;;3.20;1.60;;;29.10;63.10;;;;;;2342564;54;21050;-69
2023/08/11 11:14:21;;;;;;;3.17;1.65;;;29.20;62.90;;;;;;2341480;54;20956;-69
2023/08/11 11:16:47;;;;;;;2.95;1.45;;;29.20;62.80;;;;;;2568572;53;21006;-72
2023/08/11 11:19:13;;;;;;;2.92;1.75;;;29.30;62.90;;;;;;2572834;53;22137;-70
2023/08/11 11:21:40;;;;;;;3.00;1.65;;;29.30;62.50;;;;;;2536196;54;20947;-70
2023/08/11 11:24:16;;;;;;;3.45;1.87;;;29.40;62.30;;;;;;2582372;53;21272;-70
2023/08/11 11:26:43;;;;;;;3.42;1.85;;;29.50;61.00;;;;;;2588574;53;21905;-70
2023/08/11 11:29:09;;;;;;;3.17;1.73;;;29.50;62.10;;;;;;2588291;53;21041;-70
2023/08/11 11:31:37;;;;;;;3.17;1.85;;;29.60;62.10;;;;;;2342375;54;20984;-70
2023/08/11 11:34:04;;;;;;;3.65;1.52;;;29.60;61.80;;;;;;2326144;54;21495;-69
2023/08/11 11:36:31;;;;;;;3.08;1.73;;;29.70;61.80;;;;;;2580627;53;22284;-70
2023/08/11 11:38:57;;;;;;;2.92;1.62;;;29.70;61.50;;;;;;2587868;53;21664;-70
2023/08/11 11:41:25;;;;;;;3.55;2.17;;;29.80;61.60;;;;;;2342088;54;20956;-72
2023/08/11 11:43:51;;;;;;;3.50;1.70;;;29.80;61.50;;;;;;2342230;54;20957;-69
2023/08/11 11:46:19;;;;;;;3.28;1.60;;;29.90;61.50;;;;;;2341956;54;21515;-71
2023/08/11 11:48:48;;;;;;;2.70;1.35;;;29.90;61.00;;;;;;2342475;54;21016;-69
2023/08/11 11:51:16;;;;;;;3.50;1.67;;;30.00;61.20;;;;;;2341151;54;21700;-72
2023/08/11 11:53:42;;;;;;;2.85;1.67;;;30.10;61.00;;;;;;2588761;53;21945;-71
2023/08/11 11:56:09;;;;;;;2.47;1.35;;;30.10;60.70;;;;;;2588795;53;20937;-70
2023/08/11 11:58:38;;;;;;;2.92;1.55;;;30.20;60.50;;;;;;2340899;54;20981;-71
2023/08/11 12:01:16;;;;;;;2.78;1.60;;;30.30;60.10;;;;;;2341839;54;21032;-71
2023/08/11 12:03:44;;;;;;;2.58;1.33;;;30.30;59.20;;;;;;2327422;54;20964;-70
2023/08/11 12:06:11;;;;;;;2.33;1.30;;;30.40;60.00;;;;;;2309396;54;20962;-70
2023/08/11 12:08:41;;;;;;;2.90;1.35;;;30.50;59.80;;;;;;2329642;54;21008;-69
2023/08/11 12:11:10;;;;;;;2.80;1.27;;;30.50;59.80;;;;;;2588247;53;21000;-68
2023/08/11 12:13:41;;;;;;;3.15;1.52;;;30.60;59.60;;;;;;2324723;54;21812;-68
2023/08/11 12:16:10;;;;;;;2.80;1.50;;;30.60;58.80;;;;;;2313374;55;20999;-68
2023/08/11 12:18:37;;;;;;;2.60;1.30;;;30.70;59.00;;;;;;2342172;54;21041;-68
2023/08/11 12:21:06;;;;;;;2.53;1.45;;;30.80;58.70;;;;;;2588251;53;21024;-70
2023/08/11 12:23:32;;;;;;;2.53;1.27;;;30.80;58.60;;;;;;2310164;54;22163;-71
2023/08/11 12:26:01;;;;;;;2.50;1.40;;;30.80;58.60;;;;;;2309851;54;20963;-69
2023/08/11 12:28:27;;;;;;;2.75;1.42;;;30.90;58.40;;;;;;2548595;54;21058;-69
2023/08/11 12:30:54;;;;;;;2.40;1.30;;;30.90;58.20;;;;;;2310486;54;20998;-68
2023/08/11 12:33:25;;;;;;;3.00;1.55;;;30.90;58.10;;;;;;2548955;54;21471;-67
2023/08/11 12:35:52;;;;;;;2.80;1.30;;;31.00;58.10;;;;;;2305070;54;21022;-70
2023/08/11 12:38:21;;;;;;;2.92;1.55;;;31.00;57.90;;;;;;2309327;54;21010;-68
2023/08/11 12:40:48;;;;;;;2.90;1.50;;;31.00;57.90;;;;;;2542980;54;20982;-67
2023/08/11 12:43:15;;;;;;;2.70;1.30;;;31.10;57.90;;;;;;2305897;54;20980;-68
2023/08/11 12:45:41;;;;;;;2.40;1.30;;;31.20;57.80;;;;;;2310309;54;21050;-69
2023/08/11 12:48:08;;;;;;;2.60;1.20;;;31.20;57.80;;;;;;2309577;54;20952;-68
2023/08/11 12:50:38;;;;;;;2.45;1.20;;;31.30;57.60;;;;;;2309911;55;20947;-68
2023/08/11 12:53:05;;;;;;;2.42;1.23;;;31.30;57.50;;;;;;2549956;54;20944;-68
2023/08/11 12:55:32;;;;;;;2.47;1.30;;;31.30;57.40;;;;;;2309801;55;21034;-69